Time;durP1;ratioP1;P1;durP2;ratioP2;P2;SDS_P1;SDS_P2;PMS_P1;PMS_P2;Temp;Humidity;BMP_temperature;BMP_pressure;BME280_temperature;BME280_humidity;BME280_pressure;Samples;Min_cycle;Max_cycle;Signal;HPM_P1;HPM_P2
2024/03/21 00:00:59;;;;;;;8.77;7.87;;;;;;;11.20;90.07;98342.03;4190365;28;20650;-82
2024/03/21 00:03:00;;;;;;;10.40;8.20;;;;;;;11.17;90.78;98347.44;4203700;28;20635;-83
2024/03/21 00:05:03;;;;;;;8.50;7.57;;;;;;;11.17;89.66;98350.06;4189102;28;21114;-83
2024/03/21 00:07:05;;;;;;;12.10;8.03;;;;;;;11.14;90.50;98346.78;4203886;28;20655;-83
2024/03/21 00:09:08;;;;;;;9.47;7.50;;;;;;;11.16;90.40;98356.22;4203186;28;21202;-83
2024/03/21 00:11:11;;;;;;;8.70;7.60;;;;;;;11.12;90.43;98349.50;4202563;28;20611;-82
2024/03/21 00:13:15;;;;;;;9.70;8.00;;;;;;;11.09;89.98;98354.94;4198241;28;20619;-82
2024/03/21 00:15:17;;;;;;;9.13;7.30;;;;;;;11.04;90.30;98348.34;4203518;28;21297;-82
2024/03/21 00:17:18;;;;;;;10.27;7.73;;;;;;;11.01;89.29;98349.38;4203717;28;21329;-81
2024/03/21 00:19:20;;;;;;;6.80;6.10;;;;;;;11.00;89.40;98347.69;4189378;28;20619;-82
2024/03/21 00:21:22;;;;;;;8.17;6.90;;;;;;;10.97;89.95;98352.28;4200418;28;20648;-82
2024/03/21 00:23:24;;;;;;;9.93;6.93;;;;;;;10.95;89.82;98341.97;4188240;28;21354;-82
2024/03/21 00:25:27;;;;;;;9.20;8.20;;;;;;;10.94;90.62;98345.50;4184448;28;20667;-82
2024/03/21 00:27:29;;;;;;;11.20;7.93;;;;;;;10.92;90.64;98336.94;4185087;28;20632;-82
2024/03/21 00:29:32;;;;;;;11.40;7.10;;;;;;;10.89;89.99;98337.13;4202728;28;20619;-82
2024/03/21 00:31:34;;;;;;;10.23;7.80;;;;;;;10.85;90.50;98335.69;4200905;28;20698;-82
2024/03/21 00:33:37;;;;;;;10.17;7.50;;;;;;;10.82;90.38;98335.88;4168286;28;20613;-82
2024/03/21 00:35:38;;;;;;;9.33;7.10;;;;;;;10.81;90.09;98326.38;4184296;28;21213;-82
2024/03/21 00:37:42;;;;;;;9.20;6.97;;;;;;;10.80;90.14;98332.53;4185149;28;20620;-82
2024/03/21 00:39:45;;;;;;;10.40;6.90;;;;;;;10.80;90.89;98330.88;4183000;28;21228;-82
2024/03/21 00:41:47;;;;;;;8.53;6.37;;;;;;;10.77;90.81;98320.63;4204169;28;21280;-82
2024/03/21 00:43:50;;;;;;;10.00;7.63;;;;;;;10.75;90.75;98327.69;4202369;28;20658;-82
2024/03/21 00:45:53;;;;;;;8.70;6.70;;;;;;;10.74;89.99;98323.44;4184325;28;20618;-82
2024/03/21 00:47:56;;;;;;;9.60;6.80;;;;;;;10.71;90.96;98331.47;4170930;28;20632;-82
2024/03/21 00:49:58;;;;;;;9.53;7.50;;;;;;;10.69;90.75;98328.09;4189851;28;20665;-81
2024/03/21 00:51:59;;;;;;;8.97;6.70;;;;;;;10.67;90.69;98333.41;4185345;28;20624;-82
2024/03/21 00:54:02;;;;;;;7.70;6.60;;;;;;;10.63;91.08;98324.13;4186593;28;20643;-82
2024/03/21 00:56:04;;;;;;;8.60;6.90;;;;;;;10.61;90.95;98323.38;4185350;28;20620;-82
2024/03/21 00:58:07;;;;;;;9.17;6.97;;;;;;;10.60;90.60;98326.09;4190904;28;20608;-82
2024/03/21 01:00:13;;;;;;;10.20;7.03;;;;;;;10.58;90.85;98322.75;4189371;28;20620;-82
2024/03/21 01:02:16;;;;;;;10.37;6.63;;;;;;;10.58;91.20;98320.16;4183906;28;21079;-82
2024/03/21 01:04:18;;;;;;;11.17;7.27;;;;;;;10.58;90.84;98333.19;4178966;28;20624;-82
2024/03/21 01:06:20;;;;;;;7.57;6.57;;;;;;;10.58;91.53;98330.56;4181945;28;21053;-82
2024/03/21 01:08:22;;;;;;;7.93;6.40;;;;;;;10.57;91.65;98326.28;4195831;28;20646;-82
2024/03/21 01:10:25;;;;;;;8.73;6.77;;;;;;;10.54;90.91;98321.25;4185222;28;20647;-82
2024/03/21 01:12:26;;;;;;;9.30;7.23;;;;;;;10.53;91.07;98328.25;4202105;28;20634;-82
2024/03/21 01:14:28;;;;;;;9.90;7.10;;;;;;;10.50;91.41;98323.25;4197265;28;20631;-82
2024/03/21 01:16:31;;;;;;;8.20;6.63;;;;;;;10.51;90.64;98324.09;4218347;28;20618;-82
2024/03/21 01:18:35;;;;;;;11.20;6.80;;;;;;;10.49;91.04;98324.19;4186336;28;20639;-82
2024/03/21 01:20:40;;;;;;;9.50;6.50;;;;;;;10.48;91.65;98324.28;4200598;28;21229;-82
2024/03/21 01:22:43;;;;;;;14.63;7.03;;;;;;;10.45;91.32;98324.50;4181713;28;20655;-82
2024/03/21 01:24:44;;;;;;;9.83;7.57;;;;;;;10.42;91.21;98317.69;4199776;28;21582;-82
2024/03/21 01:26:47;;;;;;;10.63;7.10;;;;;;;10.40;91.14;98314.34;4185182;28;20629;-82
2024/03/21 01:28:48;;;;;;;10.50;7.80;;;;;;;10.37;90.85;98314.56;4190822;28;20633;-82
2024/03/21 01:30:50;;;;;;;9.60;7.40;;;;;;;10.34;90.60;98311.28;4185718;28;20625;-85
2024/03/21 01:32:53;;;;;;;10.83;6.97;;;;;;;10.32;91.18;98316.59;4199071;28;20695;-81
2024/03/21 01:34:55;;;;;;;15.30;7.33;;;;;;;10.30;90.89;98312.44;4203874;28;20627;-82
2024/03/21 01:36:57;;;;;;;10.17;7.93;;;;;;;10.28;90.90;98310.84;4175246;28;20627;-82
2024/03/21 01:38:59;;;;;;;8.83;6.70;;;;;;;10.28;91.14;98313.47;4203108;28;21076;-82
2024/03/21 01:41:02;;;;;;;8.90;7.00;;;;;;;10.26;90.58;98303.13;4171697;28;20640;-82
2024/03/21 01:43:04;;;;;;;8.97;7.03;;;;;;;10.24;90.97;98309.34;4182540;28;20654;-82
2024/03/21 01:45:06;;;;;;;9.40;6.83;;;;;;;10.21;91.12;98310.41;4179386;28;20620;-82
2024/03/21 01:47:09;;;;;;;16.40;7.67;;;;;;;10.18;91.15;98304.53;4186963;28;21008;-82
2024/03/21 01:49:12;;;;;;;9.77;7.33;;;;;;;10.17;91.17;98300.28;4187225;28;20628;-82
2024/03/21 01:51:17;;;;;;;9.00;7.00;;;;;;;10.15;91.82;98305.59;4199631;28;20627;-82
2024/03/21 01:53:18;;;;;;;10.53;7.20;;;;;;;10.12;91.38;98303.16;4167553;28;20616;-82
2024/03/21 01:55:21;;;;;;;8.30;6.50;;;;;;;10.14;91.92;98300.47;4185072;28;20669;-82
2024/03/21 01:57:24;;;;;;;8.80;6.80;;;;;;;10.13;91.07;98301.38;4202529;28;21191;-82
2024/03/21 01:59:26;;;;;;;8.93;6.47;;;;;;;10.10;91.21;98302.44;4181398;28;20624;-82
2024/03/21 02:01:28;;;;;;;8.83;7.37;;;;;;;10.08;91.16;98304.28;4163418;28;20741;-82
2024/03/21 02:06:54;;;;;;;12.00;7.23;;;;;;;9.99;91.12;98309.25;425759;26;20999;-89
2024/03/21 02:08:55;;;;;;;8.07;6.67;;;;;;;10.00;91.05;98316.97;4076313;29;20669;-91
2024/03/21 02:11:00;;;;;;;8.77;7.07;;;;;;;9.98;91.09;98313.63;4056218;29;21424;-91
2024/03/21 02:13:01;;;;;;;9.50;6.70;;;;;;;9.93;90.38;98310.44;4041821;29;21936;-91
2024/03/21 02:15:04;;;;;;;8.73;6.10;;;;;;;9.91;90.59;98307.09;4077875;29;20626;-91
2024/03/21 02:17:06;;;;;;;9.97;6.40;;;;;;;9.90;90.63;98309.78;4056996;29;20676;-91
2024/03/21 02:19:08;;;;;;;9.10;6.90;;;;;;;9.88;91.46;98306.44;4067874;29;20611;-90
2024/03/21 02:23:29;;;;;;;8.10;5.83;;;;;;;9.85;90.86;98312.66;4073380;29;20710;-90
2024/03/21 02:25:32;;;;;;;8.07;7.00;;;;;;;9.87;91.25;98320.38;4064657;29;20631;-91
2024/03/21 02:27:35;;;;;;;7.40;6.30;;;;;;;9.86;91.10;98321.31;4077084;29;20619;-91
2024/03/21 02:29:36;;;;;;;7.77;6.47;;;;;;;9.84;91.06;98319.75;4063943;29;20703;-91
2024/03/21 02:31:40;;;;;;;8.45;6.75;;;;;;;9.84;91.44;98315.38;4088684;28;20637;-91
2024/03/21 02:33:41;;;;;;;8.40;5.93;;;;;;;9.84;91.58;98322.34;4075167;29;20187;-91
2024/03/21 02:35:44;;;;;;;7.17;5.70;;;;;;;9.82;91.72;98317.25;4064808;29;20633;-91
2024/03/21 02:37:45;;;;;;;6.87;5.57;;;;;;;9.84;91.90;98327.56;4050023;29;20630;-91
2024/03/21 02:39:50;;;;;;;8.57;5.77;;;;;;;9.81;91.78;98328.59;4061927;29;20619;-91
2024/03/21 02:41:52;;;;;;;8.23;5.90;;;;;;;9.80;92.37;98323.47;4043978;29;20654;-91
2024/03/21 02:43:54;;;;;;;8.60;6.60;;;;;;;9.82;92.39;98326.81;4078489;29;20637;-91
2024/03/21 02:45:55;;;;;;;7.03;6.23;;;;;;;9.84;92.46;98328.41;4076123;28;20678;-91
2024/03/21 02:47:56;;;;;;;7.13;5.50;;;;;;;9.84;92.40;98324.00;4061078;28;20671;-91
2024/03/21 02:49:58;;;;;;;7.13;5.40;;;;;;;9.84;92.95;98324.97;4048372;29;20667;-91
2024/03/21 02:52:00;;;;;;;7.40;5.73;;;;;;;9.85;92.75;98328.31;4059291;29;21123;-91
2024/03/21 02:54:02;;;;;;;10.10;6.20;;;;;;;9.85;92.49;98325.69;4077670;28;20678;-91
2024/03/21 02:56:05;;;;;;;7.93;6.00;;;;;;;9.87;92.72;98326.44;4075422;28;21025;-91
2024/03/21 02:58:06;;;;;;;7.03;5.70;;;;;;;9.82;93.07;98329.41;4074768;28;20655;-91
2024/03/21 03:00:11;;;;;;;7.77;5.60;;;;;;;9.82;93.29;98322.44;4056182;29;20627;-91
2024/03/21 03:02:13;;;;;;;12.30;7.20;;;;;;;9.84;92.98;98324.97;4077715;29;20651;-91
2024/03/21 03:04:16;;;;;;;7.80;6.03;;;;;;;9.86;93.45;98319.56;4061504;29;20646;-90
2024/03/21 03:06:19;;;;;;;10.67;6.37;;;;;;;9.88;93.42;98330.72;4049427;29;21267;-91
2024/03/21 03:08:22;;;;;;;8.60;5.70;;;;;;;9.89;93.62;98326.34;4029847;29;20688;-91
2024/03/21 03:10:24;;;;;;;7.97;6.40;;;;;;;9.91;92.77;98334.91;4062386;29;21200;-90
2024/03/21 03:12:27;;;;;;;10.47;6.17;;;;;;;9.91;93.14;98327.91;4026040;29;21230;-91
2024/03/21 03:14:29;;;;;;;8.53;6.40;;;;;;;9.89;93.26;98321.97;4023318;29;20626;-91
2024/03/21 03:16:31;;;;;;;7.90;6.10;;;;;;;9.91;93.16;98329.69;4041499;29;20625;-91
2024/03/21 03:18:32;;;;;;;9.00;6.33;;;;;;;9.91;93.85;98332.31;4072821;29;20614;-91
2024/03/21 03:20:34;;;;;;;7.83;6.40;;;;;;;9.92;93.04;98332.22;4056355;29;20672;-91
2024/03/21 03:22:36;;;;;;;8.60;6.43;;;;;;;9.91;93.23;98337.50;4060924;29;20654;-91
2024/03/21 03:24:39;;;;;;;7.93;6.60;;;;;;;9.91;93.37;98346.16;4059493;29;20713;-91
2024/03/21 03:26:40;;;;;;;8.63;6.20;;;;;;;9.92;93.04;98346.97;4074545;29;20624;-91
2024/03/21 03:28:43;;;;;;;8.13;6.00;;;;;;;9.94;93.30;98356.41;4058152;29;20626;-91
2024/03/21 03:30:46;;;;;;;9.00;7.23;;;;;;;9.95;92.49;98349.44;4038207;29;21258;-91
2024/03/21 03:32:57;;;;;;;8.93;6.50;;;;;;;9.95;93.15;98359.84;4073762;29;20622;-91
2024/03/21 03:37:19;;;;;;;8.00;6.67;;;;;;;9.94;93.29;98358.19;4059498;29;20631;-91
2024/03/21 03:39:22;;;;;;;6.70;5.90;;;;;;;9.94;93.72;98359.03;4055032;29;20647;-91
2024/03/21 03:41:25;;;;;;;9.00;6.80;;;;;;;9.93;93.57;98366.91;4040277;29;20613;-91
2024/03/21 03:43:29;;;;;;;8.20;6.73;;;;;;;9.93;93.70;98372.13;4030970;29;21264;-91
2024/03/21 03:45:31;;;;;;;7.60;6.40;;;;;;;9.92;93.72;98368.69;4053671;29;20645;-91
2024/03/21 03:47:33;;;;;;;7.80;6.63;;;;;;;9.95;94.29;98371.13;4059935;29;20626;-91
2024/03/21 03:49:35;;;;;;;7.60;6.50;;;;;;;9.95;93.82;98365.94;4052181;29;20690;-91
2024/03/21 03:51:37;;;;;;;8.03;6.67;;;;;;;9.97;93.66;98378.84;4058647;29;20662;-91
2024/03/21 03:53:38;;;;;;;9.53;6.57;;;;;;;9.99;94.00;98376.97;4056696;28;21057;-91
2024/03/21 03:55:41;;;;;;;7.90;6.60;;;;;;;10.01;93.63;98381.19;4058532;29;20636;-91
2024/03/21 03:57:42;;;;;;;10.73;6.00;;;;;;;9.99;93.44;98383.03;4052041;29;21060;-91
2024/03/21 03:59:45;;;;;;;7.70;6.23;;;;;;;9.94;93.87;98377.25;4043624;29;20702;-91
2024/03/21 04:01:48;;;;;;;8.40;6.50;;;;;;;9.94;93.47;98382.47;4068230;28;21393;-90
2024/03/21 04:03:51;;;;;;;9.70;6.33;;;;;;;9.92;93.62;98389.53;4047226;29;21103;-91
2024/03/21 04:05:57;;;;;;;8.10;6.10;;;;;;;9.94;93.52;98384.25;4078044;29;20674;-91
2024/03/21 04:07:58;;;;;;;8.90;6.07;;;;;;;9.93;93.55;98379.94;4041066;29;20644;-91
2024/03/21 04:10:01;;;;;;;8.70;6.10;;;;;;;9.92;93.47;98380.84;4039966;29;20616;-91
2024/03/21 04:12:03;;;;;;;8.47;6.10;;;;;;;9.95;93.32;98385.91;4073249;29;20725;-91
2024/03/21 04:14:05;;;;;;;7.00;5.60;;;;;;;9.93;93.72;98380.78;4057219;29;20631;-92
2024/03/21 04:16:11;;;;;;;8.50;6.07;;;;;;;9.94;93.45;98379.88;4075431;29;20629;-91
2024/03/21 04:18:15;;;;;;;7.57;5.90;;;;;;;9.96;93.52;98393.63;4069954;29;20619;-90
2024/03/21 04:20:16;;;;;;;7.90;6.03;;;;;;;9.94;93.47;98384.25;4041704;29;20645;-91
2024/03/21 04:22:20;;;;;;;8.60;6.03;;;;;;;9.93;93.52;98382.53;4042062;29;20663;-91
2024/03/21 04:24:21;;;;;;;11.97;6.17;;;;;;;9.89;93.20;98384.50;4071423;28;21074;-91
2024/03/21 04:26:24;;;;;;;7.97;6.17;;;;;;;9.83;93.50;98380.59;4058304;29;20622;-91
2024/03/21 04:28:25;;;;;;;8.43;6.10;;;;;;;9.84;93.94;98377.06;4029149;29;20638;-91
2024/03/21 04:30:29;;;;;;;8.07;6.00;;;;;;;9.89;93.69;98379.28;4045475;29;20655;-91
2024/03/21 04:32:31;;;;;;;8.10;6.60;;;;;;;9.89;93.87;98388.84;4056629;29;20904;-91
2024/03/21 04:34:35;;;;;;;10.57;5.90;;;;;;;9.87;93.38;98386.34;4057416;29;20659;-91
2024/03/21 04:36:36;;;;;;;11.33;6.23;;;;;;;9.87;93.80;98383.72;4052523;28;20636;-91
2024/03/21 04:38:38;;;;;;;9.77;6.50;;;;;;;9.87;93.79;98383.72;4071325;28;20630;-91
2024/03/21 04:40:41;;;;;;;11.00;6.20;;;;;;;9.88;94.35;98390.63;4045464;29;21305;-91
2024/03/21 04:42:43;;;;;;;6.60;5.40;;;;;;;9.92;94.18;98388.66;4054830;28;21107;-91
2024/03/21 04:44:45;;;;;;;8.20;6.07;;;;;;;9.93;94.43;98398.16;4061529;29;20620;-91
2024/03/21 04:46:46;;;;;;;7.20;6.03;;;;;;;9.94;94.15;98389.47;4073954;29;20629;-91
2024/03/21 04:48:49;;;;;;;7.97;6.30;;;;;;;9.94;94.13;98386.84;4046293;29;20634;-91
2024/03/21 04:50:52;;;;;;;7.70;6.33;;;;;;;9.93;93.78;98393.81;4038989;29;20625;-90
2024/03/21 04:52:55;;;;;;;7.23;5.90;;;;;;;9.93;93.96;98387.75;4073040;29;20619;-91
2024/03/21 04:54:56;;;;;;;8.33;7.07;;;;;;;9.92;94.25;98401.69;4045076;29;21259;-91
2024/03/21 04:56:58;;;;;;;8.43;6.20;;;;;;;9.92;93.31;98401.69;4028047;29;21064;-91
2024/03/21 04:59:00;;;;;;;10.10;6.60;;;;;;;9.87;93.48;98404.56;4051683;29;20616;-91
2024/03/21 05:01:02;;;;;;;7.70;6.00;;;;;;;9.85;93.35;98405.63;4037752;29;21254;-91
2024/03/21 05:03:05;;;;;;;9.70;6.40;;;;;;;9.82;93.02;98405.81;4057739;29;21613;-91
2024/03/21 05:05:06;;;;;;;7.93;6.57;;;;;;;9.81;93.35;98413.72;4073969;29;20984;-91
2024/03/21 05:07:10;;;;;;;10.30;6.43;;;;;;;9.79;93.56;98412.94;4068631;29;21091;-91
2024/03/21 05:09:11;;;;;;;8.70;6.53;;;;;;;9.78;93.52;98411.28;4063243;29;20690;-91
2024/03/21 05:11:15;;;;;;;9.40;6.87;;;;;;;9.76;92.93;98406.16;4059119;29;20671;-93
2024/03/21 05:13:16;;;;;;;8.60;6.97;;;;;;;9.72;93.32;98409.03;4046218;29;20632;-93
2024/03/21 05:15:18;;;;;;;8.10;6.67;;;;;;;9.70;92.71;98416.13;4074616;29;20628;-93
2024/03/21 05:17:20;;;;;;;8.40;6.00;;;;;;;9.67;93.26;98411.94;4053674;29;20623;-93
2024/03/21 05:19:21;;;;;;;8.50;6.40;;;;;;;9.67;92.93;98411.09;4072495;29;20721;-93
2024/03/21 05:21:24;;;;;;;8.43;6.20;;;;;;;9.65;93.27;98413.78;4056251;29;20719;-93
2024/03/21 05:23:26;;;;;;;7.73;6.20;;;;;;;9.64;92.93;98414.72;4055790;28;21136;-91
2024/03/21 05:25:29;;;;;;;10.53;6.70;;;;;;;9.65;93.31;98415.53;4073043;29;20724;-93
2024/03/21 05:27:31;;;;;;;8.30;6.53;;;;;;;9.65;93.76;98412.94;4061026;29;20667;-92
2024/03/21 05:29:34;;;;;;;12.87;6.90;;;;;;;9.64;93.47;98417.31;4029212;29;20632;-94
2024/03/21 05:31:36;;;;;;;12.20;6.40;;;;;;;9.64;93.54;98403.47;4062497;29;20689;-94
2024/03/21 05:36:35;;;;;;;10.60;6.33;;;;;;;9.57;94.13;98396.94;4068672;29;20718;-92
2024/03/21 05:38:37;;;;;;;8.17;6.43;;;;;;;9.57;93.74;98402.16;4043956;29;20627;-92
2024/03/21 05:40:40;;;;;;;7.93;6.40;;;;;;;9.59;93.63;98402.88;4055145;28;20627;-92
2024/03/21 05:42:42;;;;;;;9.30;6.73;;;;;;;9.63;94.07;98409.59;4056456;29;20659;-92
2024/03/21 05:44:44;;;;;;;8.33;6.50;;;;;;;9.66;94.23;98412.84;4061168;29;20616;-93
2024/03/21 05:46:48;;;;;;;8.83;6.60;;;;;;;9.69;93.64;98415.25;4058414;29;20636;-94
2024/03/21 05:48:50;;;;;;;9.77;5.93;;;;;;;9.71;93.91;98410.81;4051300;29;20672;-90
2024/03/21 05:50:53;;;;;;;8.53;6.23;;;;;;;9.78;93.52;98419.09;4053465;29;20770;-93
2024/03/21 05:52:55;;;;;;;10.83;6.83;;;;;;;9.85;93.63;98410.81;4057176;29;20635;-95
2024/03/21 05:54:59;;;;;;;10.20;6.90;;;;;;;9.96;92.85;98417.06;4056601;29;21470;-94
2024/03/21 05:57:03;;;;;;;10.33;7.30;;;;;;;10.03;92.89;98420.16;4044187;29;20623;-93
2024/03/21 05:59:04;;;;;;;9.00;6.50;;;;;;;9.99;92.96;98414.28;4035559;29;21286;-93
2024/03/21 06:01:22;;;;;;;9.23;6.60;;;;;;;10.01;93.42;98417.66;4037476;29;20898;-93
2024/03/21 06:03:23;;;;;;;8.27;6.53;;;;;;;10.03;93.06;98418.38;4071175;29;20651;-94
2024/03/21 06:05:26;;;;;;;8.73;6.73;;;;;;;10.05;92.96;98421.72;4053017;29;21217;-93
2024/03/21 06:07:28;;;;;;;8.20;6.90;;;;;;;10.07;92.58;98413.81;4069975;29;20745;-94
2024/03/21 06:09:32;;;;;;;9.27;7.47;;;;;;;10.10;92.88;98422.31;4045032;29;20688;-94
2024/03/21 06:11:35;;;;;;;10.87;7.13;;;;;;;10.13;91.94;98421.25;4029336;29;20629;-94
2024/03/21 06:13:38;;;;;;;10.67;6.80;;;;;;;10.16;92.84;98424.50;4054541;29;21009;-95
2024/03/21 06:15:39;;;;;;;11.70;7.17;;;;;;;10.22;92.59;98428.53;4055306;29;20628;-95
2024/03/21 06:17:43;;;;;;;10.97;6.80;;;;;;;10.22;92.52;98421.53;4047026;29;20632;-94
2024/03/21 06:19:44;;;;;;;8.30;6.03;;;;;;;10.26;92.58;98417.81;4032960;29;20632;-95
2024/03/21 06:21:46;;;;;;;7.23;6.20;;;;;;;10.32;92.22;98427.03;4056834;29;20629;-94
2024/03/21 06:23:48;;;;;;;8.20;6.80;;;;;;;10.37;92.17;98439.69;4020804;29;20715;-92
2024/03/21 06:25:50;;;;;;;7.20;5.53;;;;;;;10.44;92.44;98455.78;4043988;29;20666;-93
2024/03/21 06:27:53;;;;;;;12.53;6.77;;;;;;;10.49;92.58;98446.75;4043569;29;20628;-94
2024/03/21 06:29:56;;;;;;;8.90;6.30;;;;;;;10.51;91.70;98451.88;4059049;29;20656;-94
2024/03/21 06:31:57;;;;;;;8.10;6.70;;;;;;;10.52;91.91;98461.34;4044792;29;20622;-94
2024/03/21 06:34:00;;;;;;;10.00;6.80;;;;;;;10.49;92.30;98465.00;4027477;29;20626;-94
2024/03/21 06:36:01;;;;;;;11.33;7.10;;;;;;;10.51;92.43;98470.97;4036525;29;20660;-93
2024/03/21 06:38:03;;;;;;;9.53;7.27;;;;;;;10.50;92.07;98453.63;4042548;29;20624;-94
2024/03/21 06:40:06;;;;;;;11.23;8.13;;;;;;;10.52;91.99;98471.78;4046070;29;20691;-93
2024/03/21 06:42:08;;;;;;;10.73;8.00;;;;;;;10.55;91.84;98482.03;4071245;29;20627;-93
2024/03/21 06:44:12;;;;;;;8.90;7.17;;;;;;;10.56;92.29;98481.94;4057949;29;21380;-93
2024/03/21 06:46:14;;;;;;;10.77;7.70;;;;;;;10.61;92.48;98487.69;4033524;29;20644;-94
2024/03/21 06:48:15;;;;;;;11.50;8.20;;;;;;;10.65;92.85;98493.56;4056167;29;20649;-94
2024/03/21 06:50:19;;;;;;;12.53;7.60;;;;;;;10.66;91.87;98490.00;4059316;29;20695;-94
2024/03/21 06:52:21;;;;;;;13.80;8.17;;;;;;;10.70;92.02;98496.72;4043819;29;20652;-93
2024/03/21 06:54:23;;;;;;;11.90;8.90;;;;;;;10.69;92.57;98495.03;4072890;28;20626;-92
2024/03/21 06:56:26;;;;;;;10.43;8.67;;;;;;;10.70;92.40;98507.16;4062027;29;20631;-91
2024/03/21 06:58:28;;;;;;;12.40;8.90;;;;;;;10.72;91.83;98505.28;4039410;29;20640;-91
2024/03/21 07:00:32;;;;;;;14.70;8.90;;;;;;;10.75;92.65;98511.16;4044982;29;20644;-91
2024/03/21 07:02:34;;;;;;;12.30;8.97;;;;;;;10.76;93.56;98512.81;4031430;29;20712;-92
2024/03/21 07:04:36;;;;;;;10.47;8.87;;;;;;;10.80;93.01;98520.38;4027074;29;21059;-92
2024/03/21 07:06:43;;;;;;;10.90;8.30;;;;;;;10.86;92.49;98524.38;4043497;29;20648;-94
2024/03/21 07:08:44;;;;;;;10.13;8.23;;;;;;;10.92;92.74;98524.00;4051759;29;20642;-93
2024/03/21 07:10:47;;;;;;;12.50;7.90;;;;;;;11.00;93.25;98526.94;4075685;28;20730;-93
2024/03/21 07:12:48;;;;;;;11.93;7.30;;;;;;;11.07;93.67;98530.84;4057020;29;20705;-93
2024/03/21 07:14:51;;;;;;;11.27;7.23;;;;;;;11.14;93.12;98524.28;4034327;29;20628;-93
2024/03/21 07:16:54;;;;;;;9.33;7.00;;;;;;;11.17;94.35;98527.56;4037622;29;20654;-95
2024/03/21 07:18:57;;;;;;;11.93;7.80;;;;;;;11.23;94.36;98516.75;4058129;29;20637;-93
2024/03/21 07:20:59;;;;;;;10.73;7.43;;;;;;;11.32;93.68;98524.81;4045694;29;20649;-94
2024/03/21 07:23:03;;;;;;;11.70;7.60;;;;;;;11.41;93.29;98524.22;4050011;29;20679;-94
2024/03/21 07:25:06;;;;;;;10.37;7.67;;;;;;;11.50;93.01;98525.41;4045912;29;20623;-93
2024/03/21 07:27:09;;;;;;;12.70;7.70;;;;;;;11.54;93.61;98525.13;4040775;29;20621;-94
2024/03/21 07:29:10;;;;;;;16.80;8.67;;;;;;;11.66;93.30;98539.16;4029231;29;20661;-94
2024/03/21 07:31:15;;;;;;;16.17;7.83;;;;;;;11.73;92.19;98532.56;4040940;29;21405;-95
2024/03/21 07:33:18;;;;;;;10.97;8.77;;;;;;;11.75;92.54;98540.22;4048103;29;21226;-92
2024/03/21 07:35:20;;;;;;;12.80;8.73;;;;;;;11.78;93.25;98537.41;4057954;29;20639;-92
2024/03/21 07:37:21;;;;;;;12.83;8.43;;;;;;;11.85;95.13;98541.28;4064107;28;20667;-92
2024/03/21 07:39:24;;;;;;;39.83;20.83;;;;;;;11.96;94.24;98537.97;4044709;29;20620;-92
2024/03/21 07:41:25;;;;;;;13.67;9.07;;;;;;;12.07;94.66;98535.47;4062641;29;20651;-93
2024/03/21 07:43:28;;;;;;;12.73;7.30;;;;;;;12.21;94.46;98551.06;4046980;29;21025;-92
2024/03/21 07:45:29;;;;;;;12.57;7.67;;;;;;;12.36;94.89;98548.28;4055716;29;20731;-91
2024/03/21 07:47:32;;;;;;;9.10;7.93;;;;;;;12.51;96.05;98549.81;4051924;29;21185;-92
2024/03/21 07:49:34;;;;;;;10.80;8.00;;;;;;;12.65;94.83;98550.53;4056958;29;20736;-92
2024/03/21 07:51:37;;;;;;;8.07;7.27;;;;;;;12.80;94.60;98560.78;4036461;29;21091;-92
2024/03/21 07:53:38;;;;;;;9.97;7.37;;;;;;;12.94;94.35;98560.69;4044200;29;21086;-92
2024/03/21 07:55:43;;;;;;;8.50;7.60;;;;;;;13.08;94.06;98557.09;4067117;29;20631;-92
2024/03/21 07:57:45;;;;;;;13.50;8.57;;;;;;;13.21;94.02;98567.44;4035778;29;20620;-92
2024/03/21 07:59:47;;;;;;;13.70;7.50;;;;;;;13.30;92.92;98561.53;4029787;29;20634;-92
2024/03/21 08:01:49;;;;;;;9.20;7.10;;;;;;;13.39;92.87;98557.41;4053839;29;20651;-93
2024/03/21 08:03:52;;;;;;;8.37;6.87;;;;;;;13.48;92.90;98565.44;4064563;29;20656;-92
2024/03/21 08:05:54;;;;;;;11.73;7.30;;;;;;;13.53;92.03;98567.75;4061734;29;20677;-93
2024/03/21 08:07:57;;;;;;;7.80;6.40;;;;;;;13.56;92.00;98570.13;4100486;29;20646;-92
2024/03/21 08:09:58;;;;;;;8.37;7.13;;;;;;;13.61;92.00;98568.03;4069977;29;20637;-93
2024/03/21 08:12:00;;;;;;;7.70;6.87;;;;;;;13.66;92.96;98569.34;4062103;29;20736;-93
2024/03/21 08:14:02;;;;;;;9.10;7.07;;;;;;;13.72;92.51;98566.28;4048821;29;20642;-93
2024/03/21 08:16:04;;;;;;;7.70;6.90;;;;;;;13.81;91.50;98571.69;4065277;29;20710;-93
2024/03/21 08:18:06;;;;;;;10.90;7.07;;;;;;;13.88;91.97;98574.72;4078087;29;20641;-93
2024/03/21 08:20:09;;;;;;;7.87;6.17;;;;;;;14.00;92.63;98579.06;4080919;29;20623;-93
2024/03/21 08:22:12;;;;;;;8.10;7.20;;;;;;;14.05;92.04;98571.72;4062531;29;21716;-92
2024/03/21 08:24:14;;;;;;;7.60;6.70;;;;;;;14.13;91.71;98575.41;4059452;29;20638;-92
2024/03/21 08:26:17;;;;;;;8.33;6.27;;;;;;;14.26;91.61;98581.44;4062237;29;21291;-92
2024/03/21 08:28:19;;;;;;;10.73;6.77;;;;;;;14.35;91.12;98586.00;4046734;29;20806;-92
2024/03/21 08:30:20;;;;;;;8.17;6.30;;;;;;;14.44;91.10;98591.38;4031179;29;20732;-92
2024/03/21 08:32:23;;;;;;;7.97;7.10;;;;;;;14.49;90.78;98593.66;4046951;29;21377;-92
2024/03/21 08:34:24;;;;;;;7.83;6.20;;;;;;;14.55;90.20;98595.81;4041052;29;20675;-92
2024/03/21 08:36:26;;;;;;;10.60;7.00;;;;;;;14.58;90.85;98599.03;4060683;29;20665;-92
2024/03/21 08:38:30;;;;;;;8.53;7.30;;;;;;;14.61;90.58;98599.66;4055610;29;20639;-92
2024/03/21 08:40:32;;;;;;;10.90;6.40;;;;;;;14.63;90.80;98605.59;4058032;29;20625;-92
2024/03/21 08:42:34;;;;;;;9.10;6.93;;;;;;;14.64;91.53;98606.44;4047588;29;20657;-92
2024/03/21 08:44:36;;;;;;;9.33;7.30;;;;;;;14.64;92.35;98617.78;4056959;29;20657;-92
2024/03/21 08:46:37;;;;;;;9.87;7.20;;;;;;;14.66;93.04;98615.06;4072032;29;20641;-93
2024/03/21 08:48:40;;;;;;;18.27;8.27;;;;;;;14.69;92.00;98631.41;4071985;29;21197;-91
2024/03/21 08:50:45;;;;;;;7.90;7.10;;;;;;;14.75;91.91;98627.47;4061243;29;20657;-93
2024/03/21 08:52:48;;;;;;;9.97;7.20;;;;;;;14.81;90.87;98633.09;4071974;28;20673;-93
2024/03/21 08:54:51;;;;;;;8.17;6.97;;;;;;;14.86;91.29;98627.50;4073483;29;23049;-93
2024/03/21 08:56:55;;;;;;;9.70;7.30;;;;;;;14.93;91.71;98631.31;4057578;29;20635;-94
2024/03/21 08:58:56;;;;;;;10.70;9.17;;;;;;;14.92;89.66;98633.09;4058719;29;20636;-93
2024/03/21 09:00:59;;;;;;;8.47;6.70;;;;;;;14.97;90.86;98636.19;4071792;29;20723;-93
2024/03/21 09:03:01;;;;;;;9.43;7.30;;;;;;;15.03;89.42;98648.03;4044137;29;20638;-95
2024/03/21 09:05:03;;;;;;;9.80;7.40;;;;;;;15.06;88.51;98635.50;4032911;29;20696;-93
2024/03/21 09:07:05;;;;;;;11.33;7.60;;;;;;;15.10;87.62;98636.94;4031733;29;21438;-92
2024/03/21 09:09:08;;;;;;;8.10;6.70;;;;;;;15.17;87.53;98627.66;4058731;29;20706;-95
2024/03/21 09:11:15;;;;;;;9.17;6.67;;;;;;;15.32;85.96;98623.81;4053667;29;21204;-96
2024/03/21 09:13:21;;;;;;;7.20;6.27;;;;;;;15.59;86.63;98625.09;4088227;29;20636;-96
2024/03/21 09:15:30;;;;;;;8.30;6.77;;;;;;;15.76;88.02;98624.59;4068966;29;20605;-96
2024/03/21 09:17:39;;;;;;;13.57;9.00;;;;;;;15.82;84.34;98630.19;4083663;29;20706;-96
2024/03/21 09:19:46;;;;;;;11.87;9.73;;;;;;;15.98;85.51;98617.44;4054419;29;20599;-96
2024/03/21 09:22:03;;;;;;;8.13;6.63;;;;;;;16.11;85.49;98618.13;4068637;29;20710;-96
2024/03/21 09:24:10;;;;;;;9.23;7.30;;;;;;;16.39;83.69;98622.81;4068317;29;20659;-96
2024/03/21 09:26:23;;;;;;;9.13;7.10;;;;;;;16.45;84.25;98612.63;4068839;29;20623;-95
2024/03/21 09:28:29;;;;;;;8.60;6.83;;;;;;;16.51;85.31;98623.47;4065209;29;20604;-96
2024/03/21 09:30:37;;;;;;;9.80;6.53;;;;;;;16.56;84.48;98618.66;4052638;29;20665;-96
2024/03/21 09:32:48;;;;;;;10.27;7.40;;;;;;;16.79;83.15;98635.16;4056173;29;20655;-96
2024/03/21 09:35:07;;;;;;;11.00;7.60;;;;;;;17.10;83.13;98640.34;4049497;29;20657;-96
2024/03/21 09:37:10;;;;;;;10.77;7.70;;;;;;;17.30;83.38;98645.56;4065551;29;20611;-96
2024/03/21 09:39:15;;;;;;;10.70;7.37;;;;;;;17.49;82.82;98643.03;4078964;29;20638;-96
2024/03/21 09:41:24;;;;;;;9.10;6.63;;;;;;;17.63;82.00;98634.75;4064080;29;21189;-96
2024/03/21 09:43:30;;;;;;;8.47;7.13;;;;;;;17.60;81.91;98637.66;4066769;29;20695;-96
2024/03/21 09:45:44;;;;;;;13.60;7.43;;;;;;;17.49;80.67;98643.84;4049260;29;20621;-96
2024/03/21 09:47:48;;;;;;;8.63;7.73;;;;;;;17.29;82.17;98645.72;4067165;29;20624;-96
2024/03/21 09:50:18;;;;;;;8.93;7.57;;;;;;;17.19;82.54;98645.66;4066425;29;20688;-96